createdAt,value
2018-04-26T00:02:16.636Z,14.60
2018-04-26T00:04:44.308Z,10.30
2018-04-26T00:07:11.868Z,11.83
2018-04-26T00:09:39.525Z,8.60
2018-04-26T00:12:07.090Z,11.37
2018-04-26T00:14:34.750Z,12.63
2018-04-26T00:17:02.306Z,10.00
2018-04-26T00:19:29.876Z,9.93
2018-04-26T00:21:57.434Z,11.13
2018-04-26T00:24:24.970Z,13.17
2018-04-26T00:26:52.519Z,13.47
2018-04-26T00:29:20.115Z,10.53
2018-04-26T00:31:47.772Z,15.33
2018-04-26T00:34:16.214Z,12.80
2018-04-26T00:36:43.793Z,11.87
2018-04-26T00:39:11.339Z,12.70
2018-04-26T00:41:39.098Z,12.30
2018-04-26T00:44:06.621Z,14.63
2018-04-26T00:46:34.902Z,14.43
2018-04-26T00:49:02.505Z,14.40
2018-04-26T00:51:42.034Z,14.23
2018-04-26T00:54:09.612Z,12.70
2018-04-26T00:56:37.325Z,12.63
2018-04-26T00:59:04.847Z,12.80
2018-04-26T01:01:32.528Z,11.80
2018-04-26T01:04:00.840Z,14.33
2018-04-26T01:06:28.419Z,14.23
2018-04-26T01:08:56.006Z,15.53
2018-04-26T01:11:23.602Z,14.93
2018-04-26T01:13:51.178Z,17.07
2018-04-26T01:16:18.733Z,12.97
2018-04-26T01:18:46.338Z,13.27
2018-04-26T01:21:13.890Z,16.73
2018-04-26T01:23:41.451Z,15.30
2018-04-26T01:26:09.027Z,13.27
2018-04-26T01:28:37.368Z,16.77
2018-04-26T01:31:04.915Z,14.63
2018-04-26T01:33:32.576Z,15.27
2018-04-26T01:36:00.238Z,15.07
2018-04-26T01:38:27.791Z,16.30
2018-04-26T01:40:55.374Z,12.87
2018-04-26T01:43:22.890Z,13.60
2018-04-26T01:45:51.170Z,15.07
2018-04-26T01:48:19.470Z,15.50
2018-04-26T01:50:47.063Z,17.40
2018-04-26T01:53:15.584Z,17.60
2018-04-26T01:55:43.162Z,17.73
2018-04-26T01:58:10.711Z,18.90
2018-04-26T02:00:38.262Z,18.60
2018-04-26T02:03:06.558Z,18.80
2018-04-26T02:05:34.121Z,22.63
2018-04-26T02:08:01.754Z,17.63
2018-04-26T02:10:29.285Z,19.03
2018-04-26T02:12:56.839Z,21.07
2018-04-26T02:15:24.417Z,18.43
2018-04-26T02:17:52.772Z,20.30
2018-04-26T02:20:20.340Z,19.30
2018-04-26T02:22:48.727Z,22.17
2018-04-26T02:25:17.051Z,22.73
2018-04-26T02:27:44.599Z,24.20
2018-04-26T02:30:12.173Z,22.17
2018-04-26T02:32:39.724Z,23.27
2018-04-26T02:35:07.308Z,21.97
2018-04-26T02:37:34.868Z,27.53
2018-04-26T02:40:02.435Z,21.53
2018-04-26T02:42:29.999Z,26.60
2018-04-26T02:44:57.525Z,22.13
2018-04-26T02:47:25.053Z,20.70
2018-04-26T02:49:53.391Z,21.43
2018-04-26T02:52:21.026Z,20.87
2018-04-26T02:54:48.607Z,20.33
2018-04-26T02:57:16.146Z,20.43
2018-04-26T02:59:43.698Z,16.80
2018-04-26T03:02:11.275Z,18.23
2018-04-26T03:04:38.826Z,18.33
2018-04-26T03:07:06.486Z,17.07
2018-04-26T03:09:34.079Z,18.30
2018-04-26T03:12:01.816Z,21.37
2018-04-26T03:14:29.335Z,16.13
2018-04-26T03:16:57.769Z,16.23
2018-04-26T03:19:25.446Z,15.23
2018-04-26T03:21:53.002Z,16.53
2018-04-26T03:24:20.594Z,22.23
2018-04-26T03:26:48.915Z,14.30
2018-04-26T03:29:16.439Z,16.07
2018-04-26T03:31:44.032Z,14.67
2018-04-26T03:34:11.590Z,16.20
2018-04-26T03:36:39.147Z,12.90
2018-04-26T03:39:06.731Z,11.50
2018-04-26T03:41:34.270Z,13.87
2018-04-26T03:44:01.840Z,16.73
2018-04-26T03:46:29.407Z,11.93
2018-04-26T03:48:57.142Z,12.20
2018-04-26T03:51:24.681Z,13.23
2018-04-26T03:53:52.269Z,20.13
2018-04-26T03:56:19.828Z,15.10
2018-04-26T03:58:47.411Z,13.80
2018-04-26T04:01:26.934Z,16.50
2018-04-26T04:04:06.402Z,18.47
2018-04-26T04:06:33.955Z,18.90
2018-04-26T04:09:01.503Z,15.93
2018-04-26T04:11:29.099Z,22.40
2018-04-26T04:13:57.435Z,18.80
2018-04-26T04:16:24.978Z,16.70
2018-04-26T04:18:52.508Z,22.93
2018-04-26T04:21:20.038Z,17.93
2018-04-26T04:23:49.119Z,19.07
2018-04-26T04:26:16.792Z,18.50
2018-04-26T04:28:44.351Z,17.60
2018-04-26T04:31:13.453Z,17.13
2018-04-26T04:33:41.775Z,19.83
2018-04-26T04:36:09.338Z,21.47
2018-04-26T04:38:37.008Z,19.50
2018-04-26T04:41:04.530Z,24.60
2018-04-26T04:43:32.821Z,25.50
2018-04-26T04:46:00.392Z,25.80
2018-04-26T04:48:27.943Z,39.33
2018-04-26T04:50:55.519Z,29.90
2018-04-26T04:53:23.066Z,26.47
2018-04-26T04:55:50.603Z,31.30
2018-04-26T04:58:18.928Z,25.43
2018-04-26T05:00:46.467Z,23.10
2018-04-26T05:03:13.985Z,20.80
2018-04-26T05:05:42.362Z,23.13
2018-04-26T05:08:10.700Z,27.03
2018-04-26T05:10:38.230Z,27.60
2018-04-26T05:13:05.842Z,29.00
2018-04-26T05:15:34.197Z,28.13
2018-04-26T05:18:01.743Z,28.27
2018-04-26T05:20:29.338Z,25.70
2018-04-26T05:22:56.878Z,27.07
2018-04-26T05:25:24.424Z,31.77
2018-04-26T05:27:51.989Z,25.30
2018-04-26T05:30:19.540Z,29.97
2018-04-26T05:32:47.061Z,22.67
2018-04-26T05:35:15.459Z,21.13
2018-04-26T05:37:42.986Z,20.40
2018-04-26T05:40:11.274Z,24.90
2018-04-26T05:42:39.617Z,19.10
2018-04-26T05:45:07.153Z,21.73
2018-04-26T05:47:34.730Z,29.53
2018-04-26T05:50:03.235Z,19.80
2018-04-26T05:52:31.564Z,20.60
2018-04-26T05:54:59.151Z,21.57
2018-04-26T05:57:26.715Z,23.83
2018-04-26T05:59:54.383Z,22.63
2018-04-26T06:02:21.912Z,24.23
2018-04-26T06:04:49.469Z,24.77
2018-04-26T06:07:16.992Z,23.33
2018-04-26T06:09:44.534Z,19.50
2018-04-26T06:12:12.886Z,19.67
2018-04-26T06:14:40.456Z,19.13
2018-04-26T06:17:08.770Z,18.07
2018-04-26T06:19:36.454Z,26.40
2018-04-26T06:22:04.121Z,19.13
2018-04-26T06:24:31.655Z,21.70
2018-04-26T06:26:59.223Z,19.83
2018-04-26T06:29:26.893Z,24.40
2018-04-26T06:31:54.426Z,26.67
2018-04-26T06:34:22.753Z,23.90
2018-04-26T06:36:50.366Z,20.27
2018-04-26T06:39:17.900Z,23.73
2018-04-26T06:41:45.460Z,22.23
2018-04-26T06:44:13.059Z,19.70
2018-04-26T06:46:40.627Z,26.77
2018-04-26T06:49:08.429Z,17.33
2018-04-26T06:51:36.103Z,17.50
2018-04-26T06:54:04.479Z,18.10
2018-04-26T06:56:33.558Z,21.40
2018-04-26T06:59:01.128Z,14.83
2018-04-26T07:01:30.167Z,18.40
2018-04-26T07:03:57.770Z,14.10
2018-04-26T07:06:25.333Z,21.00
2018-04-26T07:08:52.891Z,17.60
2018-04-26T07:11:20.451Z,15.27
2018-04-26T07:13:47.986Z,13.27
2018-04-26T07:16:15.577Z,21.60
2018-04-26T07:18:43.954Z,17.53
2018-04-26T07:21:11.511Z,19.57
2018-04-26T07:23:39.177Z,29.93
2018-04-26T07:26:07.555Z,17.33
2018-04-26T07:28:36.597Z,12.67
2018-04-26T07:31:04.161Z,15.73
2018-04-26T07:33:31.716Z,15.47
2018-04-26T07:35:59.263Z,12.20
2018-04-26T07:38:26.790Z,12.60
2018-04-26T07:40:54.330Z,13.27
2018-04-26T07:43:21.875Z,14.47
2018-04-26T07:45:49.414Z,12.43
2018-04-26T07:48:16.975Z,9.70
2018-04-26T07:50:44.493Z,12.93
2018-04-26T07:53:12.132Z,13.97
2018-04-26T07:55:39.633Z,12.70
2018-04-26T07:58:07.191Z,11.00
2018-04-26T08:00:34.781Z,12.10
2018-04-26T08:03:02.338Z,5.77
2018-04-26T08:05:29.884Z,6.40
2018-04-26T08:07:57.465Z,6.43
2018-04-26T08:10:24.982Z,6.37
2018-04-26T08:12:53.394Z,3.23
2018-04-26T08:15:20.995Z,3.77
2018-04-26T08:17:49.363Z,3.33
2018-04-26T08:20:16.945Z,4.10
2018-04-26T08:22:45.287Z,3.23
2018-04-26T08:25:12.866Z,4.10
2018-04-26T08:27:40.417Z,3.20
2018-04-26T08:30:07.980Z,2.97
2018-04-26T08:32:35.553Z,1.90
2018-04-26T08:35:03.078Z,1.60
2018-04-26T08:37:30.722Z,1.90
2018-04-26T08:39:58.306Z,1.93
2018-04-26T08:42:25.845Z,3.97
2018-04-26T08:44:53.440Z,1.90
2018-04-26T08:47:20.959Z,4.00
2018-04-26T08:49:48.475Z,2.90
2018-04-26T08:52:16.190Z,10.23
2018-04-26T08:54:43.692Z,9.10
2018-04-26T08:57:12.017Z,5.93
2018-04-26T08:59:39.557Z,3.10
2018-04-26T09:02:07.129Z,3.07
2018-04-26T09:04:34.706Z,3.53
2018-04-26T09:07:02.287Z,2.80
2018-04-26T09:09:29.917Z,3.63
2018-04-26T09:11:57.500Z,3.40
2018-04-26T09:14:25.046Z,3.63
2018-04-26T09:16:52.594Z,4.03
2018-04-26T09:19:20.188Z,3.60
2018-04-26T09:21:47.740Z,3.90
2018-04-26T09:24:15.427Z,6.40
2018-04-26T09:26:43.048Z,2.73
2018-04-26T09:29:11.322Z,4.50
2018-04-26T09:31:38.926Z,3.27
2018-04-26T09:34:06.581Z,1.30
2018-04-26T09:36:34.178Z,1.37
2018-04-26T09:39:01.791Z,2.30
2018-04-26T09:41:29.422Z,1.53
2018-04-26T09:43:57.011Z,1.80
2018-04-26T09:46:24.547Z,1.53
2018-04-26T09:48:52.070Z,2.67
2018-04-26T09:51:20.423Z,1.70
2018-04-26T09:53:47.950Z,2.87
2018-04-26T09:56:15.508Z,2.33
2018-04-26T09:58:43.038Z,2.50
2018-04-26T10:01:10.588Z,2.53
2018-04-26T10:03:38.862Z,2.97
2018-04-26T10:06:26.909Z,5.83
2018-04-26T10:08:54.544Z,2.50
2018-04-26T10:11:22.021Z,3.27
2018-04-26T10:13:49.586Z,4.60
2018-04-26T10:16:17.124Z,3.60
2018-04-26T10:18:45.419Z,7.53
2018-04-26T10:21:13.016Z,2.83
2018-04-26T10:23:40.588Z,1.70
2018-04-26T10:26:08.151Z,4.23
2018-04-26T10:28:35.777Z,4.10
2018-04-26T10:31:03.367Z,7.17
2018-04-26T10:33:30.898Z,2.50
2018-04-26T10:35:58.473Z,4.53
2018-04-26T10:38:26.042Z,3.63
2018-04-26T10:40:53.665Z,5.13
2018-04-26T10:43:21.360Z,3.50
2018-04-26T10:45:48.911Z,8.27
2018-04-26T10:48:16.520Z,8.03
2018-04-26T10:50:44.966Z,3.10
2018-04-26T10:53:12.603Z,3.80
2018-04-26T10:55:40.204Z,5.87
2018-04-26T10:58:07.821Z,4.13
2018-04-26T11:00:35.351Z,7.07
2018-04-26T11:03:03.664Z,6.13
2018-04-26T11:05:31.218Z,2.27
2018-04-26T11:07:58.794Z,2.30
2018-04-26T11:10:26.368Z,2.70
2018-04-26T11:12:53.925Z,4.70
2018-04-26T11:15:21.451Z,1.97
2018-04-26T11:17:49.009Z,2.37
2018-04-26T11:20:16.561Z,10.23
2018-04-26T11:22:44.088Z,2.10
2018-04-26T11:25:12.424Z,2.40
2018-04-26T11:27:39.969Z,3.50
2018-04-26T11:30:07.557Z,3.93
2018-04-26T11:32:35.106Z,4.10
2018-04-26T11:35:02.717Z,4.93
2018-04-26T11:37:30.315Z,7.43
2018-04-26T11:39:57.838Z,3.30
2018-04-26T11:42:25.451Z,4.63
2018-04-26T11:44:53.094Z,4.17
2018-04-26T11:47:20.650Z,6.17
2018-04-26T11:49:48.196Z,3.37
2018-04-26T11:52:15.801Z,7.50
2018-04-26T11:54:43.325Z,4.73
2018-04-26T11:57:10.919Z,5.90
2018-04-26T11:59:38.509Z,4.40
2018-04-26T12:02:06.797Z,4.73
2018-04-26T12:04:35.260Z,4.03
2018-04-26T12:07:03.577Z,3.90
2018-04-26T12:09:31.179Z,3.87
2018-04-26T12:11:59.527Z,6.13
2018-04-26T12:14:27.107Z,2.90
2018-04-26T12:16:54.665Z,3.57
2018-04-26T12:19:22.212Z,2.50
2018-04-26T12:21:49.762Z,1.70
2018-04-26T12:24:17.302Z,4.20
2018-04-26T12:26:44.817Z,2.53
2018-04-26T12:29:13.219Z,1.50
2018-04-26T12:31:40.702Z,2.70
2018-04-26T12:34:08.266Z,2.93
2018-04-26T12:36:35.854Z,1.77
2018-04-26T12:39:03.455Z,1.33
2018-04-26T12:41:31.749Z,2.00
2018-04-26T12:43:59.319Z,1.23
2018-04-26T12:46:26.903Z,4.00
2018-04-26T12:48:54.440Z,2.43
2018-04-26T12:51:22.001Z,2.60
2018-04-26T12:53:49.570Z,2.10
2018-04-26T12:56:17.139Z,3.20
2018-04-26T12:58:44.658Z,2.17
2018-04-26T13:01:12.237Z,2.63
2018-04-26T13:03:39.809Z,1.83
2018-04-26T13:06:07.363Z,3.20
2018-04-26T13:08:34.942Z,2.57
2018-04-26T13:11:02.476Z,4.30
2018-04-26T13:13:30.042Z,4.63
2018-04-26T13:15:57.607Z,2.70
2018-04-26T13:18:25.230Z,2.00
2018-04-26T13:20:52.838Z,3.20
2018-04-26T13:23:20.512Z,4.20
2018-04-26T13:25:48.033Z,7.10
2018-04-26T13:28:15.602Z,3.27
2018-04-26T13:30:43.146Z,3.10
2018-04-26T13:33:10.912Z,3.20
2018-04-26T13:35:38.508Z,5.20
2018-04-26T13:38:06.051Z,3.00
2018-04-26T13:40:33.620Z,3.40
2018-04-26T13:43:01.152Z,3.80
2018-04-26T13:45:28.705Z,2.70
2018-04-26T13:47:56.262Z,2.20
2018-04-26T13:50:23.789Z,2.43
2018-04-26T13:52:52.066Z,4.07
2018-04-26T13:55:20.519Z,3.70
2018-04-26T13:57:48.851Z,3.60
2018-04-26T14:00:16.459Z,6.07
2018-04-26T14:02:44.037Z,5.03
2018-04-26T14:05:12.351Z,4.33
2018-04-26T14:07:39.947Z,5.10
2018-04-26T14:10:07.503Z,2.43
2018-04-26T14:12:35.061Z,2.63
2018-04-26T14:15:02.597Z,2.20
2018-04-26T14:17:30.244Z,4.80
2018-04-26T14:19:59.254Z,3.67
2018-04-26T14:22:26.805Z,4.97
2018-04-26T14:24:54.347Z,2.43
2018-04-26T14:27:21.917Z,3.00
2018-04-26T14:29:49.507Z,3.20
2018-04-26T14:32:17.076Z,2.90
2018-04-26T14:34:44.627Z,2.90
2018-04-26T14:37:12.320Z,3.77
2018-04-26T14:39:39.766Z,1.30
2018-04-26T14:42:07.329Z,1.43
2018-04-26T14:44:36.580Z,1.63
2018-04-26T14:47:04.122Z,2.70
2018-04-26T14:49:31.642Z,4.43
2018-04-26T14:51:59.222Z,2.07
2018-04-26T14:54:27.560Z,2.43
2018-04-26T14:56:55.136Z,6.37
2018-04-26T14:59:22.723Z,1.30
2018-04-26T15:01:51.052Z,1.73
2018-04-26T15:04:18.625Z,2.60
2018-04-26T15:06:46.216Z,1.40
2018-04-26T15:09:14.529Z,1.60
2018-04-26T15:11:42.097Z,4.33
2018-04-26T15:14:09.679Z,2.53
2018-04-26T15:16:37.310Z,3.80
2018-04-26T15:19:04.931Z,4.87
2018-04-26T15:21:33.249Z,4.13
2018-04-26T15:24:00.834Z,3.03
2018-04-26T15:26:28.367Z,3.97
2018-04-26T15:28:55.959Z,3.00
2018-04-26T15:31:23.543Z,4.90
2018-04-26T15:33:51.854Z,3.73
2018-04-26T15:36:19.423Z,2.97
2018-04-26T15:38:47.086Z,3.07
2018-04-26T15:41:14.736Z,2.77
2018-04-26T15:43:42.328Z,4.20
2018-04-26T15:46:09.900Z,2.60
2018-04-26T15:48:38.986Z,5.03
2018-04-26T15:51:06.632Z,5.17
2018-04-26T15:53:46.135Z,5.40
2018-04-26T15:59:32.007Z,3.10
2018-04-26T16:02:28.750Z,3.77
2018-04-26T16:05:13.865Z,11.27
2018-04-26T16:07:58.951Z,3.43
2018-04-26T16:10:44.102Z,3.13
2018-04-26T16:13:30.011Z,1.50
2018-04-26T16:19:32.999Z,3.47
2018-04-26T16:22:18.967Z,2.93
2018-04-26T16:24:58.352Z,2.17
2018-04-26T16:27:43.793Z,2.90
2018-04-26T16:33:37.610Z,2.77
2018-04-26T16:39:13.898Z,1.93
2018-04-26T16:41:41.480Z,2.00
2018-04-26T16:44:09.036Z,3.90
2018-04-26T16:46:36.590Z,4.30
2018-04-26T16:49:04.239Z,2.63
2018-04-26T16:51:31.838Z,6.13
2018-04-26T16:53:59.373Z,4.10
2018-04-26T16:56:27.028Z,3.70
2018-04-26T16:58:54.548Z,4.30
2018-04-26T17:01:22.881Z,3.10
2018-04-26T17:03:50.434Z,5.37
2018-04-26T17:06:17.987Z,3.43
2018-04-26T17:08:45.735Z,3.30
2018-04-26T17:11:13.342Z,3.53
2018-04-26T17:13:40.883Z,2.60
2018-04-26T17:16:08.550Z,3.07
2018-04-26T17:18:36.155Z,3.63
2018-04-26T17:21:04.589Z,4.63
2018-04-26T17:23:32.878Z,3.20
2018-04-26T17:26:00.463Z,6.57
2018-04-26T17:28:28.021Z,2.93
2018-04-26T17:33:47.201Z,5.00
2018-04-26T17:36:14.761Z,5.33
2018-04-26T17:38:43.076Z,3.20
2018-04-26T17:41:10.640Z,3.30
2018-04-26T17:43:38.207Z,5.00
2018-04-26T17:46:05.784Z,4.43
2018-04-26T17:48:33.312Z,3.20
2018-04-26T17:51:00.879Z,7.30
2018-04-26T17:53:28.494Z,4.57
2018-04-26T17:55:55.998Z,7.27
2018-04-26T17:58:23.634Z,11.07
2018-04-26T18:00:51.939Z,4.47
2018-04-26T18:03:19.509Z,4.40
2018-04-26T18:05:47.161Z,5.30
2018-04-26T18:08:14.738Z,9.93
2018-04-26T18:10:42.268Z,18.23
2018-04-26T18:13:09.823Z,15.97
2018-04-26T18:15:37.589Z,8.50
2018-04-26T18:18:05.167Z,5.20
2018-04-26T18:20:32.737Z,5.93
2018-04-26T18:23:00.303Z,9.50
2018-04-26T18:25:27.933Z,12.70
2018-04-26T18:27:55.489Z,6.07
2018-04-26T18:30:23.059Z,7.80
2018-04-26T18:32:50.632Z,5.00
2018-04-26T18:35:18.300Z,3.93
2018-04-26T18:37:45.854Z,4.33
2018-04-26T18:40:13.379Z,6.10
2018-04-26T18:42:40.950Z,5.60
2018-04-26T18:45:08.547Z,4.03
2018-04-26T18:47:36.068Z,4.40
2018-04-26T18:50:03.655Z,7.50
2018-04-26T18:52:31.210Z,4.40
2018-04-26T18:54:58.719Z,8.97
2018-04-26T18:57:27.127Z,6.60
2018-04-26T18:59:54.647Z,5.13
2018-04-26T19:02:23.009Z,4.60
2018-04-26T19:04:50.522Z,4.97
2018-04-26T19:07:18.115Z,9.00
2018-04-26T19:09:45.674Z,7.63
2018-04-26T19:12:13.322Z,5.80
2018-04-26T19:14:40.912Z,9.43
2018-04-26T19:17:08.485Z,4.27
2018-04-26T19:19:36.802Z,3.20
2018-04-26T19:22:04.357Z,7.37
2018-04-26T19:24:31.911Z,3.10
2018-04-26T19:26:59.436Z,4.33
2018-04-26T19:29:27.791Z,4.40
2018-04-26T19:31:55.366Z,4.43
2018-04-26T19:34:23.700Z,4.87
2018-04-26T19:36:51.219Z,3.97
2018-04-26T19:39:18.840Z,2.87
2018-04-26T19:41:46.424Z,1.90
2018-04-26T19:44:14.744Z,2.03
2018-04-26T19:46:42.391Z,3.60
2018-04-26T19:49:09.962Z,3.50
2018-04-26T19:51:37.535Z,3.53
2018-04-26T19:54:05.055Z,3.17
2018-04-26T19:56:33.501Z,3.63
2018-04-26T19:59:01.060Z,3.27
2018-04-26T20:01:28.613Z,2.27
2018-04-26T20:03:56.173Z,2.13
2018-04-26T20:06:23.707Z,6.87
2018-04-26T20:08:51.326Z,2.20
2018-04-26T20:11:18.871Z,4.10
2018-04-26T20:13:46.423Z,6.90
2018-04-26T20:16:14.069Z,2.43
2018-04-26T20:18:41.602Z,4.20
2018-04-26T20:21:09.193Z,7.83
2018-04-26T20:23:38.236Z,4.00
2018-04-26T20:26:05.815Z,4.30
2018-04-26T20:28:33.414Z,3.77
2018-04-26T20:31:01.060Z,3.73
2018-04-26T20:33:28.611Z,6.10
2018-04-26T20:35:56.274Z,9.77
2018-04-26T20:38:23.959Z,4.40
2018-04-26T20:40:51.512Z,3.23
2018-04-26T20:43:19.073Z,2.93
2018-04-26T20:45:46.635Z,3.47
2018-04-26T20:48:26.058Z,5.00
2018-04-26T20:50:53.714Z,7.60
2018-04-26T20:53:21.254Z,2.83
2018-04-26T20:55:48.839Z,4.63
2018-04-26T20:58:16.490Z,5.63
2018-04-26T21:00:44.075Z,6.60
2018-04-26T21:03:11.810Z,7.47
2018-04-26T21:05:39.434Z,5.47
2018-04-26T21:08:07.079Z,4.60
2018-04-26T21:10:35.435Z,3.93
2018-04-26T21:13:03.137Z,3.90
2018-04-26T21:15:30.784Z,5.30
2018-04-26T21:17:59.155Z,5.63
2018-04-26T21:20:27.548Z,8.50
2018-04-26T21:22:55.191Z,4.20
2018-04-26T21:25:23.543Z,4.20
2018-04-26T21:27:51.131Z,5.80
2018-04-26T21:30:18.783Z,5.13
2018-04-26T21:32:46.342Z,6.10
2018-04-26T21:35:14.741Z,6.10
2018-04-26T21:37:43.100Z,7.27
2018-04-26T21:40:11.499Z,6.50
2018-04-26T21:42:39.851Z,7.03
2018-04-26T21:45:07.507Z,3.50
2018-04-26T21:47:35.142Z,4.43
2018-04-26T21:50:08.408Z,7.50
2018-04-26T21:52:41.782Z,4.53
2018-04-26T21:55:15.749Z,4.30
2018-04-26T21:57:49.149Z,4.77
2018-04-26T22:00:22.539Z,4.33
2018-04-26T22:02:49.658Z,4.90
2018-04-26T22:05:18.190Z,4.80
2018-04-26T22:07:45.756Z,5.33
2018-04-26T22:10:13.405Z,6.50
2018-04-26T22:12:40.991Z,4.63
2018-04-26T22:15:09.314Z,7.37
2018-04-26T22:17:36.914Z,5.07
2018-04-26T22:20:04.498Z,6.73
2018-04-26T22:22:32.810Z,6.60
2018-04-26T22:25:00.382Z,8.40
2018-04-26T22:27:27.939Z,6.43
2018-04-26T22:29:55.556Z,4.47
2018-04-26T22:32:23.878Z,5.40
2018-04-26T22:34:51.509Z,9.47
2018-04-26T22:37:19.083Z,7.30
2018-04-26T22:39:46.676Z,6.70
2018-04-26T22:42:14.362Z,5.60
2018-04-26T22:44:41.958Z,6.80
2018-04-26T22:47:09.538Z,8.30
2018-04-26T22:49:37.100Z,5.23
2018-04-26T22:52:04.704Z,9.10
2018-04-26T22:54:33.048Z,4.70
2018-04-26T22:57:00.660Z,6.50
2018-04-26T22:59:28.996Z,6.37
2018-04-26T23:01:56.625Z,8.47
2018-04-26T23:04:24.223Z,6.90
2018-04-26T23:06:51.801Z,5.67
2018-04-26T23:09:20.175Z,8.43
2018-04-26T23:11:47.766Z,6.87
2018-04-26T23:14:15.388Z,5.70
2018-04-26T23:16:42.983Z,10.23
2018-04-26T23:19:10.593Z,6.93
2018-04-26T23:21:38.175Z,8.13
2018-04-26T23:24:06.547Z,6.13
2018-04-26T23:26:34.143Z,9.00
2018-04-26T23:29:01.752Z,7.13
2018-04-26T23:31:29.484Z,6.27
2018-04-26T23:33:57.060Z,8.70
2018-04-26T23:36:24.620Z,8.00
2018-04-26T23:38:52.212Z,6.93
2018-04-26T23:41:19.815Z,8.63
2018-04-26T23:43:47.414Z,6.40
2018-04-26T23:46:15.014Z,5.57
2018-04-26T23:48:43.352Z,6.37
2018-04-26T23:51:10.951Z,10.13
2018-04-26T23:53:38.609Z,8.63
2018-04-26T23:56:06.941Z,8.67
2018-04-26T23:58:34.619Z,7.00
